createdAt,value
2018-07-04T00:02:39.600Z,5.20
2018-07-04T00:05:25.777Z,6.97
2018-07-04T00:08:12.012Z,7.07
2018-07-04T00:10:58.529Z,6.67
2018-07-04T00:13:44.807Z,7.70
2018-07-04T00:16:31.053Z,5.97
2018-07-04T00:19:17.329Z,5.40
2018-07-04T00:22:03.708Z,7.00
2018-07-04T00:24:50.336Z,9.13
2018-07-04T00:27:36.627Z,6.73
2018-07-04T00:30:22.649Z,5.80
2018-07-04T00:33:08.703Z,9.27
2018-07-04T00:35:54.894Z,6.27
2018-07-04T00:38:41.202Z,5.70
2018-07-04T00:41:27.438Z,6.70
2018-07-04T00:44:13.843Z,7.13
2018-07-04T00:47:00.031Z,8.57
2018-07-04T00:49:46.275Z,6.97
2018-07-04T00:52:32.341Z,9.13
2018-07-04T00:55:18.735Z,10.33
2018-07-04T00:58:04.963Z,8.97
2018-07-04T01:00:51.023Z,6.63
2018-07-04T01:03:37.175Z,8.10
2018-07-04T01:06:23.278Z,6.83
2018-07-04T01:09:09.546Z,7.80
2018-07-04T01:11:55.762Z,7.10
2018-07-04T01:14:41.950Z,6.40
2018-07-04T01:17:28.062Z,6.70
2018-07-04T01:20:14.294Z,6.90
2018-07-04T01:23:00.447Z,6.80
2018-07-04T01:25:46.612Z,6.93
2018-07-04T01:28:38.082Z,7.83
2018-07-04T01:31:24.227Z,6.97
2018-07-04T01:34:11.070Z,7.30
2018-07-04T01:36:57.519Z,8.00
2018-07-04T01:39:44.001Z,6.40
2018-07-04T01:42:30.383Z,7.33
2018-07-04T01:45:16.754Z,7.03
2018-07-04T01:48:03.296Z,7.30
2018-07-04T01:50:43.897Z,7.63
2018-07-04T01:53:30.087Z,6.90
2018-07-04T01:56:16.059Z,7.77
2018-07-04T01:59:02.238Z,6.80
2018-07-04T02:01:48.368Z,6.47
2018-07-04T02:04:34.646Z,6.70
2018-07-04T02:07:20.751Z,8.63
2018-07-04T02:10:07.013Z,8.40
2018-07-04T02:12:53.044Z,6.57
2018-07-04T02:15:39.050Z,6.83
2018-07-04T02:18:25.299Z,6.13
2018-07-04T02:21:11.623Z,7.27
2018-07-04T02:23:57.950Z,8.10
2018-07-04T02:26:44.526Z,7.10
2018-07-04T02:29:30.925Z,7.40
2018-07-04T02:32:17.427Z,7.83
2018-07-04T02:35:03.895Z,6.23
2018-07-04T02:37:50.176Z,6.50
2018-07-04T02:40:36.343Z,6.50
2018-07-04T02:43:22.567Z,8.17
2018-07-04T02:46:09.829Z,7.35
2018-07-04T02:48:55.941Z,6.90
2018-07-04T02:51:42.044Z,7.47
2018-07-04T02:54:28.117Z,9.10
2018-07-04T02:57:14.457Z,8.23
2018-07-04T03:00:00.564Z,8.30
2018-07-04T03:02:46.707Z,7.60
2018-07-04T03:05:32.970Z,6.63
2018-07-04T03:08:19.108Z,8.47
2018-07-04T03:11:05.237Z,7.53
2018-07-04T03:13:51.588Z,7.43
2018-07-04T03:16:37.714Z,7.23
2018-07-04T03:19:24.037Z,8.17
2018-07-04T03:22:10.253Z,6.60
2018-07-04T03:24:56.534Z,6.87
2018-07-04T03:27:42.758Z,6.83
2018-07-04T03:30:28.959Z,6.70
2018-07-04T03:33:15.122Z,7.17
2018-07-04T03:36:01.295Z,6.57
2018-07-04T03:38:47.398Z,6.90
2018-07-04T03:41:33.363Z,6.55
2018-07-04T03:44:19.518Z,6.47
2018-07-04T03:47:05.878Z,8.43
2018-07-04T03:49:53.303Z,8.60
2018-07-04T03:52:39.545Z,7.10
2018-07-04T03:55:25.951Z,7.57
2018-07-04T03:58:12.416Z,6.70
2018-07-04T04:00:58.603Z,7.37
2018-07-04T04:03:44.865Z,7.60
2018-07-04T04:06:31.119Z,7.23
2018-07-04T04:09:17.224Z,8.30
2018-07-04T04:12:03.570Z,7.60
2018-07-04T04:14:49.839Z,9.33
2018-07-04T04:17:36.402Z,7.33
2018-07-04T04:20:22.897Z,6.83
2018-07-04T04:23:09.375Z,7.13
2018-07-04T04:25:55.832Z,7.33
2018-07-04T04:28:42.416Z,6.57
2018-07-04T04:31:28.677Z,6.10
2018-07-04T04:34:14.942Z,5.40
2018-07-04T04:37:01.407Z,8.90
2018-07-04T04:39:47.885Z,5.60
2018-07-04T04:42:34.254Z,6.70
2018-07-04T04:45:20.754Z,5.90
2018-07-04T04:48:07.060Z,6.10
2018-07-04T04:50:53.391Z,8.83
2018-07-04T04:53:39.897Z,7.63
2018-07-04T04:56:25.939Z,6.65
2018-07-04T04:59:12.211Z,6.83
2018-07-04T05:01:58.430Z,11.53
2018-07-04T05:04:44.472Z,6.73
2018-07-04T05:07:30.764Z,6.87
2018-07-04T05:10:16.767Z,10.50
2018-07-04T05:13:02.921Z,8.67
2018-07-04T05:15:49.128Z,6.87
2018-07-04T05:18:35.441Z,7.28
2018-07-04T05:21:21.542Z,8.13
2018-07-04T05:24:07.598Z,10.03
2018-07-04T05:26:53.727Z,8.60
2018-07-04T05:29:39.787Z,7.97
2018-07-04T05:32:25.947Z,9.48
2018-07-04T05:35:12.106Z,8.83
2018-07-04T05:37:58.187Z,8.83
2018-07-04T05:40:45.379Z,10.03
2018-07-04T05:43:31.435Z,7.40
2018-07-04T05:46:17.569Z,8.58
2018-07-04T05:49:03.671Z,9.10
2018-07-04T05:51:49.780Z,5.00
2018-07-04T05:54:36.020Z,6.08
2018-07-04T05:57:22.286Z,4.20
2018-07-04T06:00:08.408Z,4.43
2018-07-04T06:02:54.636Z,6.75
2018-07-04T06:05:40.770Z,5.23
2018-07-04T06:08:27.022Z,7.30
2018-07-04T06:11:13.272Z,7.97
2018-07-04T06:13:59.300Z,5.77
2018-07-04T06:16:45.651Z,15.20
2018-07-04T06:19:31.850Z,9.08
2018-07-04T06:22:17.952Z,9.03
2018-07-04T06:25:04.005Z,9.15
2018-07-04T06:27:50.167Z,6.33
2018-07-04T06:30:36.361Z,3.87
2018-07-04T06:33:22.582Z,5.75
2018-07-04T06:36:08.745Z,9.10
2018-07-04T06:38:36.449Z,4.35
2018-07-04T06:41:04.177Z,3.87
2018-07-04T06:43:31.905Z,4.22
2018-07-04T06:45:59.624Z,5.05
2018-07-04T06:48:27.334Z,3.77
2018-07-04T06:50:55.075Z,5.35
2018-07-04T06:53:22.823Z,3.80
2018-07-04T06:55:50.543Z,4.85
2018-07-04T06:58:18.502Z,4.17
2018-07-04T07:00:46.219Z,4.17
2018-07-04T07:03:32.435Z,7.45
2018-07-04T07:06:18.671Z,6.23
2018-07-04T07:09:05.681Z,3.15
2018-07-04T07:11:52.109Z,3.50
2018-07-04T07:14:38.573Z,4.00
2018-07-04T07:17:24.839Z,3.65
2018-07-04T07:20:11.212Z,3.05
2018-07-04T07:22:57.514Z,4.20
2018-07-04T07:25:43.995Z,3.98
2018-07-04T07:28:30.624Z,4.55
2018-07-04T07:31:16.974Z,3.37
2018-07-04T07:34:03.601Z,3.30
2018-07-04T07:36:50.047Z,4.30
2018-07-04T07:39:36.503Z,3.12
2018-07-04T07:42:17.078Z,3.58
2018-07-04T07:45:03.477Z,7.67
2018-07-04T07:47:50.214Z,3.13
2018-07-04T07:50:36.616Z,4.25
2018-07-04T07:53:22.610Z,4.00
2018-07-04T07:56:08.870Z,4.37
2018-07-04T07:58:54.988Z,2.95
2018-07-04T08:01:41.210Z,3.65
2018-07-04T08:04:27.306Z,3.27
2018-07-04T08:07:13.453Z,3.02
2018-07-04T08:09:59.456Z,3.70
2018-07-04T08:12:45.684Z,4.33
2018-07-04T08:15:32.595Z,3.34
2018-07-04T08:18:18.717Z,3.37
2018-07-04T08:21:04.830Z,3.53
2018-07-04T08:23:50.962Z,7.58
2018-07-04T08:26:37.182Z,4.63
2018-07-04T08:29:23.386Z,6.78
2018-07-04T08:32:09.763Z,5.67
2018-07-04T08:34:56.022Z,5.53
2018-07-04T08:37:42.451Z,7.47
2018-07-04T08:40:29.005Z,4.45
2018-07-04T08:43:15.003Z,5.90
2018-07-04T08:46:01.236Z,3.00
2018-07-04T08:48:47.380Z,4.17
2018-07-04T08:51:33.390Z,6.50
2018-07-04T08:54:19.614Z,3.47
2018-07-04T08:57:05.745Z,7.70
2018-07-04T08:59:51.996Z,3.20
2018-07-04T09:02:38.050Z,4.80
2018-07-04T09:05:24.315Z,3.83
2018-07-04T09:08:10.431Z,4.30
2018-07-04T09:10:56.660Z,5.37
2018-07-04T09:13:42.716Z,4.37
2018-07-04T09:16:28.816Z,4.95
2018-07-04T09:19:14.855Z,4.90
2018-07-04T09:22:00.985Z,5.37
2018-07-04T09:24:47.235Z,4.05
2018-07-04T09:27:33.267Z,4.85
2018-07-04T09:30:19.559Z,4.37
2018-07-04T09:33:05.657Z,7.08
2018-07-04T09:35:51.686Z,5.08
2018-07-04T09:38:37.917Z,4.20
2018-07-04T09:41:23.934Z,4.28
2018-07-04T09:44:10.164Z,4.97
2018-07-04T09:46:56.292Z,6.20
2018-07-04T09:49:42.607Z,3.72
2018-07-04T09:52:29.164Z,6.63
2018-07-04T09:55:15.754Z,4.70
2018-07-04T09:58:02.538Z,4.52
2018-07-04T10:00:53.863Z,4.73
2018-07-04T10:03:40.014Z,3.80
2018-07-04T10:06:26.011Z,5.90
2018-07-04T10:09:12.158Z,5.10
2018-07-04T10:11:58.560Z,3.33
2018-07-04T10:14:44.954Z,4.37
2018-07-04T10:17:31.177Z,3.12
2018-07-04T10:20:17.473Z,3.52
2018-07-04T10:23:03.769Z,3.30
2018-07-04T10:25:49.989Z,4.22
2018-07-04T10:28:36.239Z,4.42
2018-07-04T10:31:22.358Z,3.47
2018-07-04T10:34:08.627Z,3.75
2018-07-04T10:36:54.889Z,2.35
2018-07-04T10:39:41.110Z,3.60
2018-07-04T10:42:27.261Z,4.33
2018-07-04T10:45:13.397Z,2.83
2018-07-04T10:47:59.623Z,4.03
2018-07-04T10:50:46.159Z,3.17
2018-07-04T10:53:32.627Z,5.93
2018-07-04T10:56:19.123Z,4.33
2018-07-04T10:59:06.788Z,4.06
2018-07-04T11:01:53.164Z,3.57
2018-07-04T11:04:39.353Z,3.65
2018-07-04T11:07:25.519Z,4.37
2018-07-04T11:10:11.706Z,3.60
2018-07-04T11:12:57.839Z,3.90
2018-07-04T11:15:43.859Z,4.26
2018-07-04T11:18:29.934Z,4.33
2018-07-04T11:21:16.303Z,3.65
2018-07-04T11:24:02.780Z,4.70
2018-07-04T11:26:48.996Z,4.40
2018-07-04T11:29:35.195Z,4.97
2018-07-04T11:32:21.282Z,2.93
2018-07-04T11:35:07.428Z,4.03
2018-07-04T11:37:53.511Z,4.12
2018-07-04T11:40:39.705Z,3.50
2018-07-04T11:43:25.872Z,3.80
2018-07-04T11:46:00.525Z,3.65
2018-07-04T11:48:29.312Z,5.46
2018-07-04T11:50:57.099Z,4.20
2018-07-04T11:56:02.956Z,4.03
2018-07-04T11:58:30.744Z,4.27
2018-07-04T12:00:58.528Z,4.20
2018-07-04T12:03:26.281Z,3.77
2018-07-04T12:06:12.651Z,4.72
2018-07-04T12:08:40.429Z,5.37
2018-07-04T12:11:08.172Z,4.03
2018-07-04T12:13:35.934Z,4.80
2018-07-04T12:16:03.835Z,4.23
2018-07-04T12:18:32.488Z,3.60
2018-07-04T12:21:00.317Z,4.70
2018-07-04T12:23:27.991Z,6.73
2018-07-04T12:25:55.757Z,4.80
2018-07-04T12:28:23.517Z,4.60
2018-07-04T12:30:51.259Z,6.78
2018-07-04T12:33:18.983Z,3.87
2018-07-04T12:35:46.711Z,6.00
2018-07-04T12:38:14.521Z,5.30
2018-07-04T12:40:42.322Z,7.58
2018-07-04T12:43:10.318Z,4.20
2018-07-04T12:45:39.584Z,3.05
2018-07-04T12:48:06.003Z,4.58
2018-07-04T12:50:34.053Z,4.53
2018-07-04T12:53:01.837Z,6.47
2018-07-04T12:55:48.112Z,5.35
2018-07-04T12:58:34.550Z,5.77
2018-07-04T13:01:36.411Z,6.15
2018-07-04T13:04:22.819Z,5.63
2018-07-04T13:07:09.062Z,7.53
2018-07-04T13:09:55.286Z,4.43
2018-07-04T13:12:41.399Z,6.33
2018-07-04T13:15:27.926Z,3.77
2018-07-04T13:18:14.308Z,4.43
2018-07-04T13:21:00.940Z,6.20
2018-07-04T13:23:48.107Z,6.10
2018-07-04T13:26:34.479Z,4.30
2018-07-04T13:29:21.007Z,4.33
2018-07-04T13:32:08.337Z,4.92
2018-07-04T13:34:55.197Z,4.28
2018-07-04T13:37:41.322Z,7.28
2018-07-04T13:40:27.677Z,4.07
2018-07-04T13:43:14.183Z,3.53
2018-07-04T13:46:00.507Z,4.97
2018-07-04T13:48:46.999Z,3.87
2018-07-04T13:51:33.345Z,4.27
2018-07-04T13:54:19.815Z,3.83
2018-07-04T13:57:06.151Z,4.20
2018-07-04T13:59:52.547Z,3.40
2018-07-04T14:02:38.817Z,3.12
2018-07-04T14:05:25.028Z,2.87
2018-07-04T14:08:11.618Z,3.55
2018-07-04T14:10:58.146Z,2.40
2018-07-04T14:13:44.541Z,2.40
2018-07-04T14:16:31.038Z,5.60
2018-07-04T14:19:17.814Z,3.05
2018-07-04T14:22:03.835Z,2.20
2018-07-04T14:24:50.180Z,4.53
2018-07-04T14:27:36.639Z,3.37
2018-07-04T14:30:23.127Z,3.97
2018-07-04T14:33:09.734Z,2.60
2018-07-04T14:35:56.080Z,2.57
2018-07-04T14:38:42.539Z,3.10
2018-07-04T14:41:29.266Z,2.00
2018-07-04T14:44:15.569Z,2.37
2018-07-04T14:47:01.599Z,3.55
2018-07-04T14:49:47.927Z,3.02
2018-07-04T14:52:34.173Z,2.97
2018-07-04T14:55:20.346Z,2.85
2018-07-04T14:58:06.899Z,2.33
2018-07-04T15:00:53.222Z,2.40
2018-07-04T15:03:39.615Z,4.17
2018-07-04T15:06:26.157Z,3.43
2018-07-04T15:09:12.597Z,3.23
2018-07-04T15:11:58.800Z,2.47
2018-07-04T15:14:45.140Z,4.35
2018-07-04T15:17:31.626Z,2.90
2018-07-04T15:20:17.921Z,2.50
2018-07-04T15:23:04.416Z,4.24
2018-07-04T15:25:50.931Z,4.67
2018-07-04T15:28:37.382Z,3.90
2018-07-04T15:31:23.835Z,2.20
2018-07-04T15:34:10.139Z,4.23
2018-07-04T15:36:56.700Z,3.42
2018-07-04T15:39:43.229Z,5.07
2018-07-04T15:42:29.685Z,4.03
2018-07-04T15:45:16.091Z,4.83
2018-07-04T15:48:02.117Z,3.83
2018-07-04T15:50:48.322Z,6.70
2018-07-04T15:53:34.390Z,3.55
2018-07-04T15:56:20.979Z,4.30
2018-07-04T15:59:07.548Z,2.70
2018-07-04T16:01:53.932Z,3.17
2018-07-04T16:04:40.424Z,4.60
2018-07-04T16:07:26.744Z,2.95
2018-07-04T16:10:13.184Z,3.07
2018-07-04T16:12:59.482Z,2.20
2018-07-04T16:15:46.055Z,5.00
2018-07-04T16:18:32.604Z,3.23
2018-07-04T16:21:19.044Z,3.85
2018-07-04T16:24:05.518Z,3.90
2018-07-04T16:26:51.885Z,3.37
2018-07-04T16:29:38.267Z,2.62
2018-07-04T16:32:24.790Z,2.83
2018-07-04T16:35:05.086Z,2.67
2018-07-04T16:37:51.386Z,3.22
2018-07-04T16:40:38.458Z,2.52
2018-07-04T16:43:24.983Z,3.27
2018-07-04T16:46:11.548Z,2.87
2018-07-04T16:48:57.886Z,6.35
2018-07-04T16:51:44.119Z,4.80
2018-07-04T16:54:30.279Z,2.20
2018-07-04T16:57:16.417Z,4.17
2018-07-04T17:00:02.383Z,2.37
2018-07-04T17:02:48.516Z,3.08
2018-07-04T17:05:34.739Z,2.70
2018-07-04T17:08:20.847Z,2.50
2018-07-04T17:11:07.055Z,2.15
2018-07-04T17:13:53.626Z,2.20
2018-07-04T17:16:39.675Z,3.02
2018-07-04T17:19:26.913Z,3.32
2018-07-04T17:22:13.007Z,3.30
2018-07-04T17:24:59.581Z,3.07
2018-07-04T17:27:45.775Z,1.85
2018-07-04T17:30:31.915Z,2.57
2018-07-04T17:33:18.367Z,2.00
2018-07-04T17:36:04.856Z,1.70
2018-07-04T17:38:51.151Z,2.63
2018-07-04T17:41:37.996Z,1.57
2018-07-04T17:44:24.555Z,1.70
2018-07-04T17:47:10.866Z,2.42
2018-07-04T17:49:57.239Z,1.77
2018-07-04T17:52:43.719Z,3.73
2018-07-04T17:55:30.228Z,1.70
2018-07-04T17:58:16.902Z,1.30
2018-07-04T18:01:03.276Z,2.17
2018-07-04T18:03:49.731Z,1.67
2018-07-04T18:06:37.162Z,1.72
2018-07-04T18:09:23.302Z,2.00
2018-07-04T18:12:09.804Z,2.65
2018-07-04T18:14:56.147Z,2.65
2018-07-04T18:17:42.351Z,3.20
2018-07-04T18:20:28.422Z,3.15
2018-07-04T18:23:14.537Z,2.95
2018-07-04T18:26:00.618Z,3.67
2018-07-04T18:28:46.870Z,2.25
2018-07-04T18:31:33.083Z,4.22
2018-07-04T18:34:19.267Z,5.57
2018-07-04T18:37:05.410Z,2.02
2018-07-04T18:39:51.557Z,2.40
2018-07-04T18:42:38.060Z,2.37
2018-07-04T18:45:24.544Z,1.92
2018-07-04T18:48:04.963Z,3.70
2018-07-04T18:50:51.466Z,1.85
2018-07-04T18:53:37.926Z,6.30
2018-07-04T18:56:24.230Z,2.43
2018-07-04T18:59:10.703Z,2.10
2018-07-04T19:01:57.263Z,3.50
2018-07-04T19:04:43.643Z,3.57
2018-07-04T19:07:30.179Z,2.25
2018-07-04T19:10:17.362Z,2.80
2018-07-04T19:13:03.941Z,4.83
2018-07-04T19:15:50.470Z,4.20
2018-07-04T19:18:36.838Z,6.42
2018-07-04T19:21:23.334Z,3.87
2018-07-04T19:24:03.785Z,4.80
2018-07-04T19:26:51.359Z,5.03
2018-07-04T19:29:37.675Z,2.97
2018-07-04T19:32:24.160Z,5.83
2018-07-04T19:35:10.579Z,3.83
2018-07-04T19:37:56.975Z,2.60
2018-07-04T19:40:43.489Z,6.92
2018-07-04T19:43:30.012Z,3.60
2018-07-04T19:46:16.630Z,3.62
2018-07-04T19:49:02.945Z,4.15
2018-07-04T19:51:49.331Z,3.07
2018-07-04T19:54:35.890Z,2.77
2018-07-04T19:57:22.332Z,5.40
2018-07-04T20:00:08.590Z,3.30
2018-07-04T20:02:55.071Z,2.80
2018-07-04T20:05:41.618Z,2.62
2018-07-04T20:08:27.932Z,4.53
2018-07-04T20:11:14.442Z,3.47
2018-07-04T20:14:01.043Z,3.98
2018-07-04T20:16:47.628Z,3.40
2018-07-04T20:19:34.110Z,2.80
2018-07-04T20:22:20.390Z,3.17
2018-07-04T20:25:07.025Z,3.03
2018-07-04T20:27:53.520Z,3.60
2018-07-04T20:30:39.802Z,4.03
2018-07-04T20:33:26.037Z,5.13
2018-07-04T20:36:12.547Z,3.57
2018-07-04T20:38:58.972Z,3.03
2018-07-04T20:41:45.717Z,2.43
2018-07-04T20:44:32.668Z,3.47
2018-07-04T20:47:19.080Z,2.70
2018-07-04T20:50:05.234Z,3.20
2018-07-04T20:52:51.239Z,3.40
2018-07-04T20:55:37.280Z,2.72
2018-07-04T20:58:23.394Z,3.77
2018-07-04T21:01:09.796Z,4.10
2018-07-04T21:03:56.085Z,3.13
2018-07-04T21:06:42.446Z,5.10
2018-07-04T21:09:28.931Z,5.13
2018-07-04T21:12:15.358Z,5.37
2018-07-04T21:15:01.899Z,2.70
2018-07-04T21:17:48.295Z,5.30
2018-07-04T21:20:34.790Z,6.00
2018-07-04T21:23:21.323Z,3.23
2018-07-04T21:26:07.671Z,3.60
2018-07-04T21:28:54.054Z,4.33
2018-07-04T21:31:40.334Z,4.50
2018-07-04T21:34:27.216Z,3.30
2018-07-04T21:37:13.537Z,3.50
2018-07-04T21:40:00.074Z,4.83
2018-07-04T21:42:46.493Z,3.53
2018-07-04T21:45:32.937Z,4.50
2018-07-04T21:48:19.434Z,5.08
2018-07-04T21:51:06.492Z,3.50
2018-07-04T21:53:52.834Z,6.40
2018-07-04T21:56:39.232Z,4.33
2018-07-04T21:59:25.645Z,3.40
2018-07-04T22:02:12.245Z,5.57
2018-07-04T22:04:58.616Z,7.47
2018-07-04T22:07:44.867Z,5.43
2018-07-04T22:10:31.003Z,8.73
2018-07-04T22:13:17.213Z,8.23
2018-07-04T22:16:03.425Z,6.90
2018-07-04T22:18:49.802Z,6.17
2018-07-04T22:21:35.811Z,6.63
2018-07-04T22:24:21.977Z,5.83
2018-07-04T22:27:08.110Z,5.33
2018-07-04T22:29:54.281Z,4.78
2018-07-04T22:32:40.364Z,4.63
2018-07-04T22:35:26.584Z,5.30
2018-07-04T22:38:12.706Z,4.67
2018-07-04T22:41:00.090Z,4.78
2018-07-04T22:43:46.539Z,5.27
2018-07-04T22:46:32.913Z,5.63
2018-07-04T22:49:19.376Z,6.10
2018-07-04T22:52:05.982Z,8.20
2018-07-04T22:54:52.394Z,5.17
2018-07-04T22:57:38.827Z,5.67
2018-07-04T23:00:25.294Z,5.50
2018-07-04T23:03:11.795Z,6.43
2018-07-04T23:05:58.217Z,5.10
2018-07-04T23:08:44.561Z,5.12
2018-07-04T23:11:31.199Z,5.10
2018-07-04T23:14:17.766Z,5.20
2018-07-04T23:17:04.261Z,5.33
2018-07-04T23:19:52.108Z,6.73
2018-07-04T23:22:38.322Z,5.60
2018-07-04T23:25:24.749Z,5.67
2018-07-04T23:28:11.263Z,5.83
2018-07-04T23:30:51.818Z,5.40
2018-07-04T23:33:38.207Z,6.13
2018-07-04T23:36:24.703Z,5.53
2018-07-04T23:39:11.101Z,6.97
2018-07-04T23:41:57.642Z,7.03
2018-07-04T23:44:43.969Z,8.20
2018-07-04T23:47:30.368Z,5.00
2018-07-04T23:50:16.858Z,6.97
2018-07-04T23:53:04.318Z,5.50
2018-07-04T23:55:50.638Z,5.77
2018-07-04T23:58:36.839Z,5.30
